createdAt,value
2023-05-01T00:00:05.486Z,59
2023-05-01T00:01:00.422Z,59
2023-05-01T00:02:00.441Z,59
2023-05-01T00:03:00.510Z,59
2023-05-01T00:04:00.942Z,59
2023-05-01T00:05:03.028Z,59
2023-05-01T00:06:00.498Z,59
2023-05-01T00:07:00.381Z,59
2023-05-01T00:08:00.447Z,59
2023-05-01T00:09:00.402Z,59
2023-05-01T00:10:03.473Z,59
2023-05-01T00:11:00.408Z,59
2023-05-01T00:12:00.508Z,59
2023-05-01T00:13:00.401Z,59
2023-05-01T00:14:00.514Z,59
2023-05-01T00:15:03.049Z,59
2023-05-01T00:16:00.543Z,59
2023-05-01T00:17:00.435Z,59
2023-05-01T00:18:00.682Z,59
2023-05-01T00:19:00.461Z,59
2023-05-01T00:20:03.726Z,59
2023-05-01T00:21:00.502Z,59
2023-05-01T00:22:00.626Z,59
2023-05-01T00:23:00.490Z,59
2023-05-01T00:24:00.612Z,59
2023-05-01T00:25:02.933Z,59
2023-05-01T00:26:00.609Z,59
2023-05-01T00:27:00.531Z,59
2023-05-01T00:28:00.588Z,59
2023-05-01T00:29:00.545Z,59
2023-05-01T00:30:03.765Z,59
2023-05-01T00:31:00.551Z,59
2023-05-01T00:32:00.656Z,59
2023-05-01T00:33:00.648Z,59
2023-05-01T00:34:00.634Z,59
2023-05-01T00:35:03.154Z,59
2023-05-01T00:36:00.700Z,59
2023-05-01T00:37:00.601Z,59
2023-05-01T00:38:00.660Z,59
2023-05-01T00:39:00.596Z,59
2023-05-01T00:40:03.711Z,59
2023-05-01T00:41:00.611Z,59
2023-05-01T00:42:00.721Z,59
2023-05-01T00:43:00.599Z,59
2023-05-01T00:44:00.682Z,59
2023-05-01T00:45:04.117Z,59
2023-05-01T00:46:00.744Z,59
2023-05-01T00:47:00.669Z,59
2023-05-01T00:48:00.861Z,59
2023-05-01T00:49:00.684Z,59
2023-05-01T00:50:03.484Z,58
2023-05-01T00:51:00.700Z,58
2023-05-01T00:52:00.761Z,58
2023-05-01T00:53:00.697Z,58
2023-05-01T00:54:00.813Z,58
2023-05-01T00:55:03.411Z,58
2023-05-01T00:56:00.764Z,58
2023-05-01T00:57:00.727Z,58
2023-05-01T00:58:00.820Z,59
2023-05-01T00:59:00.720Z,59
2023-05-01T01:00:03.897Z,59
2023-05-01T01:01:00.817Z,59
2023-05-01T01:02:00.872Z,59
2023-05-01T01:03:00.886Z,59
2023-05-01T01:04:00.917Z,59
2023-05-01T01:05:03.168Z,59
2023-05-01T01:06:00.928Z,58
2023-05-01T01:07:00.816Z,58
2023-05-01T01:08:00.883Z,58
2023-05-01T01:09:00.814Z,58
2023-05-01T01:10:04.440Z,58
2023-05-01T01:11:00.861Z,58
2023-05-01T01:12:00.941Z,58
2023-05-01T01:13:00.847Z,58
2023-05-01T01:14:00.917Z,58
2023-05-01T01:15:03.342Z,58
2023-05-01T01:16:00.981Z,58
2023-05-01T01:17:00.960Z,58
2023-05-01T01:18:01.023Z,58
2023-05-01T01:19:00.886Z,58
2023-05-01T01:20:03.866Z,58
2023-05-01T01:21:00.929Z,59
2023-05-01T01:22:01.002Z,59
2023-05-01T01:23:00.905Z,59
2023-05-01T01:24:01.007Z,59
2023-05-01T01:25:03.406Z,59
2023-05-01T01:26:04.142Z,59
2023-05-01T01:27:00.957Z,59
2023-05-01T01:28:01.029Z,59
2023-05-01T01:29:00.947Z,58
2023-05-01T01:30:06.088Z,58
2023-05-01T01:31:01.016Z,58
2023-05-01T01:32:01.027Z,58
2023-05-01T01:33:01.035Z,58
2023-05-01T01:34:01.124Z,58
2023-05-01T01:35:03.407Z,58
2023-05-01T01:36:01.067Z,58
2023-05-01T01:37:00.989Z,58
2023-05-01T01:38:01.094Z,58
2023-05-01T01:39:01.009Z,59
2023-05-01T01:40:04.793Z,59
2023-05-01T01:41:01.030Z,59
2023-05-01T01:42:01.136Z,59
2023-05-01T01:43:01.009Z,59
2023-05-01T01:44:01.092Z,59
2023-05-01T01:45:03.533Z,59
2023-05-01T01:46:01.201Z,59
2023-05-01T01:47:01.042Z,59
2023-05-01T01:48:01.132Z,59
2023-05-01T01:49:01.052Z,59
2023-05-01T01:50:04.249Z,59
2023-05-01T01:51:01.090Z,59
2023-05-01T01:52:01.166Z,59
2023-05-01T01:53:01.065Z,59
2023-05-01T01:54:01.169Z,59
2023-05-01T01:55:03.468Z,59
2023-05-01T01:56:04.720Z,60
2023-05-01T01:57:01.102Z,60
2023-05-01T01:58:01.186Z,60
2023-05-01T01:59:01.093Z,60
2023-05-01T02:00:04.335Z,60
2023-05-01T02:01:01.147Z,60
2023-05-01T02:02:01.250Z,60
2023-05-01T02:03:01.336Z,60
2023-05-01T02:04:01.373Z,60
2023-05-01T02:05:03.819Z,60
2023-05-01T02:06:01.328Z,60
2023-05-01T02:07:01.160Z,60
2023-05-01T02:08:00.256Z,60
2023-05-01T02:09:00.193Z,60
2023-05-01T02:10:03.171Z,60
2023-05-01T02:11:02.053Z,60
2023-05-01T02:12:00.282Z,60
2023-05-01T02:13:00.206Z,60
2023-05-01T02:14:01.355Z,60
2023-05-01T02:15:02.816Z,60
2023-05-01T02:16:00.416Z,60
2023-05-01T02:17:00.224Z,60
2023-05-01T02:18:00.647Z,60
2023-05-01T02:19:00.248Z,60
2023-05-01T02:20:04.789Z,60
2023-05-01T02:21:00.348Z,60
2023-05-01T02:22:00.666Z,60
2023-05-01T02:23:00.266Z,60
2023-05-01T02:24:00.345Z,59
2023-05-01T02:25:02.640Z,59
2023-05-01T02:26:00.643Z,59
2023-05-01T02:27:00.292Z,59
2023-05-01T02:28:00.380Z,59
2023-05-01T02:29:00.285Z,59
2023-05-01T02:30:03.308Z,59
2023-05-01T02:31:00.335Z,59
2023-05-01T02:32:00.529Z,59
2023-05-01T02:33:00.421Z,59
2023-05-01T02:34:00.661Z,59
2023-05-01T02:35:05.151Z,59
2023-05-01T02:36:00.420Z,59
2023-05-01T02:37:00.331Z,59
2023-05-01T02:38:00.444Z,59
2023-05-01T02:39:00.383Z,59
2023-05-01T02:40:03.483Z,59
2023-05-01T02:41:00.379Z,59
2023-05-01T02:42:00.464Z,59
2023-05-01T02:43:00.384Z,59
2023-05-01T02:44:00.492Z,59
2023-05-01T02:45:03.109Z,59
2023-05-01T02:46:00.518Z,59
2023-05-01T02:47:00.444Z,59
2023-05-01T02:48:00.663Z,59
2023-05-01T02:49:00.424Z,59
2023-05-01T02:50:04.127Z,60
2023-05-01T02:51:00.442Z,60
2023-05-01T02:52:00.648Z,60
2023-05-01T02:53:00.465Z,60
2023-05-01T02:54:00.559Z,59
2023-05-01T02:55:02.829Z,59
2023-05-01T02:56:00.641Z,59
2023-05-01T02:57:00.470Z,59
2023-05-01T02:58:00.590Z,59
2023-05-01T02:59:00.502Z,59
2023-05-01T03:00:03.464Z,60
2023-05-01T03:01:00.580Z,60
2023-05-01T03:02:00.603Z,60
2023-05-01T03:03:00.574Z,60
2023-05-01T03:04:00.746Z,60
2023-05-01T03:05:02.979Z,60
2023-05-01T03:06:00.666Z,60
2023-05-01T03:07:00.558Z,60
2023-05-01T03:08:00.654Z,60
2023-05-01T03:09:00.580Z,60
2023-05-01T03:10:03.826Z,61
2023-05-01T03:11:00.582Z,61
2023-05-01T03:12:00.679Z,61
2023-05-01T03:13:00.613Z,61
2023-05-01T03:14:00.666Z,61
2023-05-01T03:15:03.845Z,61
2023-05-01T03:16:00.797Z,61
2023-05-01T03:17:00.626Z,61
2023-05-01T03:18:00.748Z,61
2023-05-01T03:19:00.642Z,62
2023-05-01T03:20:03.600Z,62
2023-05-01T03:21:00.658Z,62
2023-05-01T03:22:00.727Z,62
2023-05-01T03:23:00.654Z,62
2023-05-01T03:24:00.746Z,62
2023-05-01T03:25:03.241Z,62
2023-05-01T03:26:03.911Z,62
2023-05-01T03:27:00.716Z,62
2023-05-01T03:28:00.786Z,62
2023-05-01T03:29:00.696Z,62
2023-05-01T03:30:04.800Z,62
2023-05-01T03:31:00.728Z,62
2023-05-01T03:32:00.847Z,62
2023-05-01T03:33:00.860Z,62
2023-05-01T03:34:00.877Z,62
2023-05-01T03:35:03.391Z,63
2023-05-01T03:36:00.861Z,63
2023-05-01T03:37:00.780Z,63
2023-05-01T03:38:00.841Z,63
2023-05-01T03:39:00.816Z,63
2023-05-01T03:40:20.063Z,63
2023-05-01T03:41:00.793Z,63
2023-05-01T03:42:01.047Z,63
2023-05-01T03:43:00.794Z,63
2023-05-01T03:44:00.892Z,63
2023-05-01T03:45:04.883Z,63
2023-05-01T03:46:01.092Z,63
2023-05-01T03:47:00.824Z,63
2023-05-01T03:48:00.971Z,63
2023-05-01T03:49:00.842Z,63
2023-05-01T03:50:04.055Z,63
2023-05-01T03:51:00.857Z,63
2023-05-01T03:52:00.945Z,63
2023-05-01T03:53:00.873Z,63
2023-05-01T03:54:00.957Z,63
2023-05-01T03:55:03.461Z,63
2023-05-01T03:56:00.962Z,63
2023-05-01T03:57:00.910Z,63
2023-05-01T03:58:01.004Z,63
2023-05-01T03:59:00.896Z,63
2023-05-01T04:00:04.026Z,63
2023-05-01T04:01:00.946Z,63
2023-05-01T04:02:01.008Z,63
2023-05-01T04:03:01.136Z,63
2023-05-01T04:04:01.079Z,63
2023-05-01T04:05:03.480Z,63
2023-05-01T04:06:01.034Z,62
2023-05-01T04:07:00.934Z,62
2023-05-01T04:08:01.010Z,62
2023-05-01T04:09:00.949Z,62
2023-05-01T04:10:03.954Z,62
2023-05-01T04:11:00.949Z,62
2023-05-01T04:12:02.083Z,62
2023-05-01T04:13:00.975Z,62
2023-05-01T04:14:01.078Z,62
2023-05-01T04:15:03.394Z,62
2023-05-01T04:16:01.147Z,63
2023-05-01T04:17:00.981Z,63
2023-05-01T04:18:01.131Z,63
2023-05-01T04:19:01.010Z,63
2023-05-01T04:20:04.263Z,63
2023-05-01T04:21:01.029Z,63
2023-05-01T04:22:01.265Z,63
2023-05-01T04:23:01.030Z,63
2023-05-01T04:24:01.106Z,63
2023-05-01T04:25:04.407Z,63
2023-05-01T04:26:01.113Z,63
2023-05-01T04:27:01.067Z,63
2023-05-01T04:28:01.154Z,63
2023-05-01T04:29:01.058Z,63
2023-05-01T04:30:04.113Z,63
2023-05-01T04:31:01.141Z,64
2023-05-01T04:32:01.235Z,64
2023-05-01T04:33:01.157Z,64
2023-05-01T04:34:01.206Z,64
2023-05-01T04:35:04.235Z,64
2023-05-01T04:36:01.197Z,64
2023-05-01T04:37:01.122Z,64
2023-05-01T04:38:01.223Z,64
2023-05-01T04:39:01.128Z,64
2023-05-01T04:40:04.279Z,64
2023-05-01T04:41:01.140Z,64
2023-05-01T04:42:01.251Z,64
2023-05-01T04:43:01.165Z,64
2023-05-01T04:44:01.240Z,64
2023-05-01T04:45:03.671Z,64
2023-05-01T04:46:00.403Z,64
2023-05-01T04:47:00.232Z,64
2023-05-01T04:48:01.435Z,63
2023-05-01T04:49:00.188Z,63
2023-05-01T04:50:03.122Z,63
2023-05-01T04:51:00.233Z,63
2023-05-01T04:52:00.429Z,63
2023-05-01T04:53:00.206Z,63
2023-05-01T04:54:00.300Z,64
2023-05-01T04:55:02.657Z,64
2023-05-01T04:56:00.294Z,64
2023-05-01T04:57:00.234Z,64
2023-05-01T04:58:00.325Z,64
2023-05-01T04:59:00.236Z,64
2023-05-01T05:00:04.067Z,64
2023-05-01T05:01:00.290Z,64
2023-05-01T05:02:00.403Z,64
2023-05-01T05:03:00.398Z,64
2023-05-01T05:04:00.686Z,64
2023-05-01T05:05:03.217Z,64
2023-05-01T05:06:00.456Z,64
2023-05-01T05:07:00.312Z,64
2023-05-01T05:08:00.413Z,64
2023-05-01T05:09:00.345Z,64
2023-05-01T05:10:04.177Z,64
2023-05-01T05:11:00.394Z,64
2023-05-01T05:12:00.449Z,64
2023-05-01T05:13:00.377Z,65
2023-05-01T05:14:00.460Z,65
2023-05-01T05:15:02.775Z,65
2023-05-01T05:16:00.719Z,65
2023-05-01T05:17:00.426Z,65
2023-05-01T05:18:00.639Z,65
2023-05-01T05:19:00.419Z,65
2023-05-01T05:20:05.330Z,65
2023-05-01T05:21:00.436Z,65
2023-05-01T05:22:00.529Z,65
2023-05-01T05:23:00.442Z,65
2023-05-01T05:24:00.555Z,65
2023-05-01T05:25:02.824Z,65
2023-05-01T05:26:00.509Z,65
2023-05-01T05:27:00.463Z,65
2023-05-01T05:28:00.548Z,65
2023-05-01T05:29:00.459Z,65
2023-05-01T05:30:03.540Z,65
2023-05-01T05:31:00.471Z,66
2023-05-01T05:32:00.612Z,66
2023-05-01T05:33:00.552Z,66
2023-05-01T05:34:00.586Z,65
2023-05-01T05:35:04.456Z,65
2023-05-01T05:36:00.640Z,65
2023-05-01T05:37:00.524Z,65
2023-05-01T05:38:00.608Z,65
2023-05-01T05:39:00.530Z,65
2023-05-01T05:40:03.477Z,65
2023-05-01T05:41:00.577Z,65
2023-05-01T05:42:00.636Z,65
2023-05-01T05:43:00.574Z,65
2023-05-01T05:44:00.633Z,65
2023-05-01T05:45:03.371Z,65
2023-05-01T05:46:00.881Z,65
2023-05-01T05:47:00.579Z,65
2023-05-01T05:48:00.714Z,65
2023-05-01T05:49:00.646Z,65
2023-05-01T05:50:03.501Z,65
2023-05-01T05:51:00.626Z,65
2023-05-01T05:52:00.692Z,65
2023-05-01T05:53:00.604Z,65
2023-05-01T05:54:00.711Z,65
2023-05-01T05:55:03.245Z,65
2023-05-01T05:56:00.691Z,65
2023-05-01T05:57:00.643Z,64
2023-05-01T05:58:00.739Z,64
2023-05-01T05:59:00.634Z,64
2023-05-01T06:00:04.076Z,64
2023-05-01T06:01:00.655Z,64
2023-05-01T06:02:00.879Z,64
2023-05-01T06:03:00.849Z,64
2023-05-01T06:04:00.770Z,64
2023-05-01T06:05:03.217Z,64
2023-05-01T06:06:01.051Z,64
2023-05-01T06:07:00.856Z,64
2023-05-01T06:08:00.790Z,64
2023-05-01T06:09:00.748Z,63
2023-05-01T06:10:05.313Z,63
2023-05-01T06:11:00.746Z,63
2023-05-01T06:12:00.801Z,64
2023-05-01T06:13:10.805Z,64
2023-05-01T06:14:00.821Z,64
2023-05-01T06:15:03.824Z,64
2023-05-01T06:16:00.951Z,63
2023-05-01T06:17:00.778Z,63
2023-05-01T06:18:00.895Z,63
2023-05-01T06:19:00.795Z,63
2023-05-01T06:20:03.979Z,63
2023-05-01T06:21:00.818Z,63
2023-05-01T06:22:01.059Z,63
2023-05-01T06:23:00.825Z,63
2023-05-01T06:24:00.926Z,62
2023-05-01T06:25:03.480Z,62
2023-05-01T06:26:00.906Z,63
2023-05-01T06:27:01.596Z,63
2023-05-01T06:28:01.251Z,63
2023-05-01T06:29:00.862Z,63
2023-05-01T06:30:03.888Z,63
2023-05-01T06:31:00.897Z,63
2023-05-01T06:32:00.970Z,63
2023-05-01T06:33:00.924Z,63
2023-05-01T06:34:00.953Z,63
2023-05-01T06:35:03.531Z,63
2023-05-01T06:36:00.984Z,63
2023-05-01T06:37:00.891Z,63
2023-05-01T06:38:00.992Z,63
2023-05-01T06:39:00.918Z,63
2023-05-01T06:40:05.676Z,63
2023-05-01T06:41:00.907Z,63
2023-05-01T06:42:01.004Z,63
2023-05-01T06:43:00.911Z,63
2023-05-01T06:44:00.983Z,63
2023-05-01T06:45:03.229Z,63
2023-05-01T06:46:01.215Z,63
2023-05-01T06:47:00.949Z,63
2023-05-01T06:48:01.103Z,63
2023-05-01T06:49:00.959Z,63
2023-05-01T06:50:05.543Z,63
2023-05-01T06:51:00.999Z,63
2023-05-01T06:52:01.233Z,63
2023-05-01T06:53:01.000Z,63
2023-05-01T06:54:01.110Z,63
2023-05-01T06:55:03.647Z,62
2023-05-01T06:56:01.058Z,62
2023-05-01T06:57:01.015Z,62
2023-05-01T06:58:04.812Z,62
2023-05-01T06:59:01.023Z,62
2023-05-01T07:00:05.356Z,62
2023-05-01T07:01:01.115Z,62
2023-05-01T07:02:01.209Z,62
2023-05-01T07:03:01.086Z,62
2023-05-01T07:04:01.186Z,62
2023-05-01T07:05:03.673Z,62
2023-05-01T07:06:01.226Z,62
2023-05-01T07:07:01.081Z,62
2023-05-01T07:08:02.096Z,61
2023-05-01T07:09:01.140Z,61
2023-05-01T07:10:04.898Z,61
2023-05-01T07:11:01.134Z,61
2023-05-01T07:12:01.193Z,61
2023-05-01T07:13:01.122Z,61
2023-05-01T07:14:01.234Z,61
2023-05-01T07:15:03.578Z,60
2023-05-01T07:16:01.242Z,60
2023-05-01T07:17:01.461Z,60
2023-05-01T07:18:01.285Z,59
2023-05-01T07:19:01.154Z,59
2023-05-01T07:20:04.323Z,59
2023-05-01T07:21:01.217Z,59
2023-05-01T07:22:01.265Z,58
2023-05-01T07:23:00.189Z,58
2023-05-01T07:24:00.268Z,58
2023-05-01T07:25:02.541Z,58
2023-05-01T07:26:00.292Z,58
2023-05-01T07:27:00.232Z,58
2023-05-01T07:28:00.425Z,58
2023-05-01T07:29:00.207Z,58
2023-05-01T07:30:03.434Z,58
2023-05-01T07:31:00.223Z,58
2023-05-01T07:32:00.323Z,58
2023-05-01T07:33:00.288Z,57
2023-05-01T07:34:00.335Z,57
2023-05-01T07:35:04.486Z,57
2023-05-01T07:36:00.345Z,57
2023-05-01T07:37:00.267Z,57
2023-05-01T07:38:00.323Z,57
2023-05-01T07:39:00.265Z,57
2023-05-01T07:40:03.636Z,57
2023-05-01T07:41:00.295Z,57
2023-05-01T07:42:00.422Z,57
2023-05-01T07:43:00.300Z,57
2023-05-01T07:44:00.374Z,57
2023-05-01T07:45:02.837Z,56
2023-05-01T07:46:00.661Z,56
2023-05-01T07:47:00.315Z,56
2023-05-01T07:48:00.424Z,57
2023-05-01T07:49:00.315Z,57
2023-05-01T07:50:03.130Z,57
2023-05-01T07:51:00.348Z,57
2023-05-01T07:52:00.422Z,57
2023-05-01T07:53:00.340Z,56
2023-05-01T07:54:00.422Z,56
2023-05-01T07:55:02.982Z,56
2023-05-01T07:56:00.436Z,56
2023-05-01T07:57:00.385Z,56
2023-05-01T07:58:00.659Z,56
2023-05-01T07:59:00.385Z,56
2023-05-01T08:00:04.920Z,56
2023-05-01T08:01:00.394Z,56
2023-05-01T08:02:00.559Z,56
2023-05-01T08:03:00.553Z,56
2023-05-01T08:04:00.701Z,56
2023-05-01T08:05:03.902Z,56
2023-05-01T08:06:00.569Z,56
2023-05-01T08:07:00.428Z,56
2023-05-01T08:08:00.517Z,56
2023-05-01T08:09:00.446Z,56
2023-05-01T08:10:03.644Z,56
2023-05-01T08:11:00.455Z,56
2023-05-01T08:12:00.551Z,56
2023-05-01T08:13:00.465Z,56
2023-05-01T08:14:00.556Z,56
2023-05-01T08:15:03.530Z,55
2023-05-01T08:16:00.650Z,55
2023-05-01T08:17:00.496Z,55
2023-05-01T08:18:00.646Z,55
2023-05-01T08:19:00.495Z,55
2023-05-01T08:20:04.315Z,55
2023-05-01T08:21:00.544Z,55
2023-05-01T08:22:00.659Z,55
2023-05-01T08:23:00.525Z,55
2023-05-01T08:24:00.624Z,55
2023-05-01T08:25:03.143Z,55
2023-05-01T08:26:00.597Z,55
2023-05-01T08:27:00.547Z,55
2023-05-01T08:28:00.633Z,55
2023-05-01T08:29:00.563Z,55
2023-05-01T08:30:04.206Z,54
2023-05-01T08:31:00.598Z,54
2023-05-01T08:32:01.044Z,54
2023-05-01T08:33:00.626Z,55
2023-05-01T08:34:00.824Z,55
2023-05-01T08:35:02.983Z,55
2023-05-01T08:36:00.678Z,54
2023-05-01T08:37:00.614Z,54
2023-05-01T08:38:00.680Z,55
2023-05-01T08:39:00.661Z,55
2023-05-01T08:40:03.634Z,55
2023-05-01T08:41:00.652Z,54
2023-05-01T08:42:00.715Z,54
2023-05-01T08:43:00.653Z,54
2023-05-01T08:44:00.743Z,54
2023-05-01T08:45:03.261Z,54
2023-05-01T08:46:00.916Z,55
2023-05-01T08:47:00.750Z,55
2023-05-01T08:48:00.845Z,55
2023-05-01T08:49:00.700Z,54
2023-05-01T08:50:03.479Z,54
2023-05-01T08:51:00.726Z,54
2023-05-01T08:52:00.804Z,54
2023-05-01T08:53:00.730Z,53
2023-05-01T08:54:00.830Z,53
2023-05-01T08:55:03.052Z,53
2023-05-01T08:56:00.797Z,53
2023-05-01T08:57:00.761Z,53
2023-05-01T08:58:00.841Z,53
2023-05-01T08:59:00.763Z,53
2023-05-01T09:00:04.884Z,53
2023-05-01T09:01:00.797Z,53
2023-05-01T09:02:01.588Z,53
2023-05-01T09:03:00.915Z,52
2023-05-01T09:04:04.128Z,52
2023-05-01T09:05:03.234Z,52
2023-05-01T09:06:00.926Z,52
2023-05-01T09:07:00.811Z,52
2023-05-01T09:08:00.926Z,52
2023-05-01T09:09:00.837Z,51
2023-05-01T09:10:06.454Z,51
2023-05-01T09:11:00.840Z,51
2023-05-01T09:12:02.840Z,51
2023-05-01T09:13:00.893Z,51
2023-05-01T09:14:00.982Z,52
2023-05-01T09:15:03.354Z,52
2023-05-01T09:16:01.619Z,52
2023-05-01T09:17:00.875Z,52
2023-05-01T09:18:03.456Z,52
2023-05-01T09:19:00.900Z,52
2023-05-01T09:20:04.318Z,52
2023-05-01T09:21:00.925Z,52
2023-05-01T09:22:01.038Z,51
2023-05-01T09:23:00.922Z,51
2023-05-01T09:24:01.061Z,51
2023-05-01T09:25:03.341Z,51
2023-05-01T09:26:01.014Z,51
2023-05-01T09:27:00.961Z,50
2023-05-01T09:28:01.036Z,50
2023-05-01T09:29:00.965Z,51
2023-05-01T09:30:04.037Z,51
2023-05-01T09:31:00.999Z,51
2023-05-01T09:32:01.094Z,50
2023-05-01T09:33:01.025Z,50
2023-05-01T09:34:01.103Z,50
2023-05-01T09:35:03.636Z,50
2023-05-01T09:36:01.080Z,50
2023-05-01T09:37:01.001Z,50
2023-05-01T09:38:01.098Z,50
2023-05-01T09:39:01.051Z,49
2023-05-01T09:40:04.669Z,49
2023-05-01T09:41:01.027Z,49
2023-05-01T09:42:01.151Z,50
2023-05-01T09:43:01.052Z,50
2023-05-01T09:44:01.107Z,50
2023-05-01T09:45:03.620Z,50
2023-05-01T09:46:01.164Z,50
2023-05-01T09:47:01.073Z,50
2023-05-01T09:48:02.286Z,50
2023-05-01T09:49:01.083Z,50
2023-05-01T09:50:04.483Z,50
2023-05-01T09:51:01.141Z,50
2023-05-01T09:52:01.174Z,49
2023-05-01T09:53:01.108Z,49
2023-05-01T09:54:01.209Z,49
2023-05-01T09:55:04.488Z,49
2023-05-01T09:56:01.199Z,49
2023-05-01T09:57:01.168Z,49
2023-05-01T09:58:01.227Z,49
2023-05-01T09:59:01.138Z,49
2023-05-01T10:00:04.307Z,49
2023-05-01T10:01:00.240Z,49
2023-05-01T10:02:00.421Z,50
2023-05-01T10:03:00.384Z,50
2023-05-01T10:04:00.365Z,49
2023-05-01T10:05:02.752Z,49
2023-05-01T10:06:00.383Z,48
2023-05-01T10:07:00.465Z,48
2023-05-01T10:08:00.319Z,48
2023-05-01T10:09:00.252Z,48
2023-05-01T10:10:03.701Z,48
2023-05-01T10:11:00.263Z,48
2023-05-01T10:12:00.362Z,47
2023-05-01T10:13:00.268Z,47
2023-05-01T10:14:00.347Z,47
2023-05-01T10:15:13.799Z,48
2023-05-01T10:16:00.407Z,48
2023-05-01T10:17:00.365Z,47
2023-05-01T10:18:00.484Z,47
2023-05-01T10:19:01.150Z,47
2023-05-01T10:20:04.340Z,47
2023-05-01T10:21:00.343Z,47
2023-05-01T10:22:00.560Z,46
2023-05-01T10:23:00.325Z,46
2023-05-01T10:24:00.406Z,46
2023-05-01T10:25:02.818Z,46
2023-05-01T10:26:01.938Z,46
2023-05-01T10:27:00.354Z,46
2023-05-01T10:28:00.604Z,46
2023-05-01T10:29:00.353Z,46
2023-05-01T10:30:03.469Z,46
2023-05-01T10:31:00.447Z,46
2023-05-01T10:32:00.602Z,47
2023-05-01T10:33:00.439Z,47
2023-05-01T10:34:00.657Z,47
2023-05-01T10:35:02.962Z,46
2023-05-01T10:36:00.506Z,46
2023-05-01T10:37:00.400Z,46
2023-05-01T10:38:00.522Z,46
2023-05-01T10:39:00.460Z,46
2023-05-01T10:40:03.508Z,47
2023-05-01T10:41:00.433Z,47
2023-05-01T10:42:00.523Z,46
2023-05-01T10:43:00.457Z,46
2023-05-01T10:44:00.523Z,46
2023-05-01T10:45:02.927Z,45
2023-05-01T10:46:00.639Z,45
2023-05-01T10:47:00.471Z,45
2023-05-01T10:48:00.613Z,45
2023-05-01T10:49:00.481Z,45
2023-05-01T10:50:04.367Z,46
2023-05-01T10:51:00.504Z,46
2023-05-01T10:52:00.601Z,44
2023-05-01T10:53:00.512Z,44
2023-05-01T10:54:00.630Z,44
2023-05-01T10:55:02.950Z,45
2023-05-01T10:56:00.598Z,45
2023-05-01T10:57:00.559Z,45
2023-05-01T10:58:00.622Z,45
2023-05-01T10:59:00.551Z,45
2023-05-01T11:00:03.930Z,44
2023-05-01T11:01:00.579Z,44
2023-05-01T11:02:00.721Z,44
2023-05-01T11:03:00.613Z,45
2023-05-01T11:04:00.676Z,45
2023-05-01T11:05:03.152Z,44
2023-05-01T11:06:01.174Z,44
2023-05-01T11:07:00.685Z,45
2023-05-01T11:08:00.680Z,45
2023-05-01T11:09:00.617Z,45
2023-05-01T11:10:03.942Z,46
2023-05-01T11:11:00.632Z,46
2023-05-01T11:12:00.725Z,45
2023-05-01T11:13:00.633Z,45
2023-05-01T11:14:00.722Z,45
2023-05-01T11:15:03.212Z,44
2023-05-01T11:16:00.742Z,44
2023-05-01T11:17:00.661Z,44
2023-05-01T11:18:00.806Z,44
2023-05-01T11:19:00.669Z,44
2023-05-01T11:20:04.344Z,43
2023-05-01T11:21:00.687Z,43
2023-05-01T11:22:00.923Z,43
2023-05-01T11:23:00.698Z,43
2023-05-01T11:24:00.801Z,43
2023-05-01T11:25:03.161Z,43
2023-05-01T11:26:00.965Z,43
2023-05-01T11:27:00.734Z,43
2023-05-01T11:28:01.006Z,43
2023-05-01T11:29:00.719Z,43
2023-05-01T11:30:03.739Z,43
2023-05-01T11:31:00.756Z,43
2023-05-01T11:32:00.959Z,43
2023-05-01T11:33:00.826Z,43
2023-05-01T11:34:00.855Z,43
2023-05-01T11:35:03.296Z,43
2023-05-01T11:36:00.882Z,43
2023-05-01T11:37:00.815Z,43
2023-05-01T11:38:00.840Z,43
2023-05-01T11:39:00.789Z,43
2023-05-01T11:40:04.070Z,43
2023-05-01T11:41:00.800Z,43
2023-05-01T11:42:00.952Z,43
2023-05-01T11:43:00.794Z,40
2023-05-01T11:44:00.866Z,40
2023-05-01T11:45:04.647Z,41
2023-05-01T11:46:00.942Z,41
2023-05-01T11:47:00.838Z,41
2023-05-01T11:48:03.663Z,41
2023-05-01T11:49:00.831Z,41
2023-05-01T11:50:03.673Z,41
2023-05-01T11:51:01.203Z,41
2023-05-01T11:52:00.960Z,41
2023-05-01T11:53:00.877Z,42
2023-05-01T11:54:00.969Z,42
2023-05-01T11:55:03.908Z,43
2023-05-01T11:56:00.978Z,43
2023-05-01T11:57:01.165Z,43
2023-05-01T11:58:01.115Z,42
2023-05-01T11:59:00.899Z,42
2023-05-01T12:00:04.161Z,42
2023-05-01T12:01:00.924Z,43
2023-05-01T12:02:01.006Z,43
2023-05-01T12:03:01.208Z,43
2023-05-01T12:04:01.072Z,43
2023-05-01T12:05:03.589Z,44
2023-05-01T12:06:01.099Z,44
2023-05-01T12:07:00.948Z,44
2023-05-01T12:08:01.030Z,43
2023-05-01T12:09:01.135Z,43
2023-05-01T12:10:04.369Z,43
2023-05-01T12:11:00.983Z,42
2023-05-01T12:12:01.061Z,42
2023-05-01T12:13:00.993Z,43
2023-05-01T12:14:01.403Z,43
2023-05-01T12:15:03.390Z,43
2023-05-01T12:16:01.068Z,43
2023-05-01T12:17:01.064Z,43
2023-05-01T12:18:01.270Z,43
2023-05-01T12:19:01.008Z,43
2023-05-01T12:20:03.927Z,41
2023-05-01T12:21:01.060Z,41
2023-05-01T12:22:01.116Z,41
2023-05-01T12:23:01.029Z,40
2023-05-01T12:24:01.126Z,40
2023-05-01T12:25:03.425Z,40
2023-05-01T12:26:01.112Z,40
2023-05-01T12:27:01.091Z,40
2023-05-01T12:28:01.118Z,40
2023-05-01T12:29:01.076Z,40
2023-05-01T12:30:04.281Z,40
2023-05-01T12:31:03.296Z,40
2023-05-01T12:32:01.474Z,40
2023-05-01T12:33:01.160Z,42
2023-05-01T12:34:01.177Z,42
2023-05-01T12:35:03.681Z,42
2023-05-01T12:36:01.186Z,41
2023-05-01T12:37:01.898Z,41
2023-05-01T12:38:01.315Z,40
2023-05-01T12:39:01.129Z,40
2023-05-01T12:40:08.430Z,40
2023-05-01T12:41:01.121Z,39
2023-05-01T12:42:01.204Z,39
2023-05-01T12:43:01.133Z,39
2023-05-01T12:44:01.246Z,39
2023-05-01T12:45:03.750Z,39
2023-05-01T12:46:01.460Z,41
2023-05-01T12:47:01.444Z,41
2023-05-01T12:48:01.305Z,39
2023-05-01T12:49:00.162Z,39
2023-05-01T12:50:03.359Z,39
2023-05-01T12:51:00.187Z,38
2023-05-01T12:52:00.272Z,38
2023-05-01T12:53:00.179Z,38
2023-05-01T12:54:00.286Z,38
2023-05-01T12:55:03.012Z,38
2023-05-01T12:56:00.479Z,38
2023-05-01T12:57:00.242Z,38
2023-05-01T12:58:00.288Z,38
2023-05-01T12:59:00.217Z,38
2023-05-01T13:00:03.560Z,38
2023-05-01T13:01:00.262Z,39
2023-05-01T13:02:00.497Z,39
2023-05-01T13:03:00.393Z,39
2023-05-01T13:04:00.352Z,39
2023-05-01T13:05:02.756Z,39
2023-05-01T13:06:00.475Z,39
2023-05-01T13:07:00.300Z,40
2023-05-01T13:08:00.384Z,40
2023-05-01T13:09:00.321Z,40
2023-05-01T13:10:04.374Z,40
2023-05-01T13:11:00.341Z,41
2023-05-01T13:12:00.402Z,41
2023-05-01T13:13:00.315Z,40
2023-05-01T13:14:00.411Z,40
2023-05-01T13:15:02.952Z,40
2023-05-01T13:16:00.460Z,41
2023-05-01T13:17:00.337Z,41
2023-05-01T13:18:00.475Z,41
2023-05-01T13:19:00.357Z,40
2023-05-01T13:20:03.822Z,40
2023-05-01T13:21:00.395Z,40
2023-05-01T13:22:00.488Z,40
2023-05-01T13:23:00.379Z,39
2023-05-01T13:24:00.471Z,39
2023-05-01T13:25:03.325Z,39
2023-05-01T13:26:00.500Z,40
2023-05-01T13:27:01.819Z,40
2023-05-01T13:28:00.469Z,40
2023-05-01T13:29:00.440Z,40
2023-05-01T13:30:03.589Z,40
2023-05-01T13:31:00.459Z,40
2023-05-01T13:32:00.574Z,40
2023-05-01T13:33:00.566Z,40
2023-05-01T13:34:00.518Z,39
2023-05-01T13:35:03.645Z,39
2023-05-01T13:36:01.753Z,38
2023-05-01T13:37:00.480Z,38
2023-05-01T13:38:00.569Z,38
2023-05-01T13:39:00.502Z,38
2023-05-01T13:40:03.253Z,38
2023-05-01T13:41:00.519Z,37
2023-05-01T13:42:00.605Z,37
2023-05-01T13:43:00.507Z,37
2023-05-01T13:44:00.612Z,37
2023-05-01T13:45:04.098Z,37
2023-05-01T13:46:00.698Z,38
2023-05-01T13:47:00.551Z,38
2023-05-01T13:48:00.629Z,38
2023-05-01T13:49:00.545Z,39
2023-05-01T13:50:03.483Z,39
2023-05-01T13:51:00.604Z,41
2023-05-01T13:52:00.655Z,41
2023-05-01T13:53:00.600Z,41
2023-05-01T13:54:00.660Z,40
2023-05-01T13:55:05.054Z,40
2023-05-01T13:56:00.686Z,44
2023-05-01T13:57:00.626Z,44
2023-05-01T13:58:00.706Z,44
2023-05-01T13:59:00.628Z,46
2023-05-01T14:00:03.785Z,46
2023-05-01T14:01:00.721Z,46
2023-05-01T14:02:00.790Z,45
2023-05-01T14:03:00.859Z,45
2023-05-01T14:04:00.779Z,45
2023-05-01T14:05:03.452Z,45
2023-05-01T14:06:00.909Z,45
2023-05-01T14:07:00.692Z,45
2023-05-01T14:08:00.760Z,45
2023-05-01T14:09:00.688Z,44
2023-05-01T14:10:04.378Z,44
2023-05-01T14:11:00.699Z,44
2023-05-01T14:12:00.769Z,42
2023-05-01T14:13:00.725Z,42
2023-05-01T14:14:00.806Z,42
2023-05-01T14:15:03.733Z,44